sensor_id;sensor_type;location;lat;lon;timestamp;P1;durP1;ratioP1;P2;durP2;ratioP2
49582;SDS011;36329;48.816;44.624;2022-12-18T00:01:36;23.3;;;13.9;;
49582;SDS011;36329;48.816;44.624;2022-12-18T00:04:38;21.6;;;12.8;;
49582;SDS011;36329;48.816;44.624;2022-12-18T00:07:40;22.8;;;13;;
49582;SDS011;36329;48.816;44.624;2022-12-18T00:10:41;24.8;;;14.1;;
49582;SDS011;36329;48.816;44.624;2022-12-18T00:13:44;21.8;;;12.9;;
49582;SDS011;36329;48.816;44.624;2022-12-18T00:16:46;20.7;;;13.1;;
49582;SDS011;36329;48.816;44.624;2022-12-18T00:19:48;21.9;;;12.9;;
49582;SDS011;36329;48.816;44.624;2022-12-18T00:22:49;23.8;;;12.3;;
49582;SDS011;36329;48.816;44.624;2022-12-18T00:25:51;21.2;;;12.7;;
49582;SDS011;36329;48.816;44.624;2022-12-18T00:28:53;20.1;;;12.3;;
49582;SDS011;36329;48.816;44.624;2022-12-18T00:31:56;18.9;;;12.1;;
49582;SDS011;36329;48.816;44.624;2022-12-18T00:34:57;20.1;;;12.6;;
49582;SDS011;36329;48.816;44.624;2022-12-18T00:37:59;19.9;;;12.1;;
49582;SDS011;36329;48.816;44.624;2022-12-18T00:41:01;20.4;;;11.9;;
49582;SDS011;36329;48.816;44.624;2022-12-18T00:44:03;20;;;12.4;;
49582;SDS011;36329;48.816;44.624;2022-12-18T00:47:06;18.8;;;11.2;;
49582;SDS011;36329;48.816;44.624;2022-12-18T00:50:08;21.6;;;11.6;;
49582;SDS011;36329;48.816;44.624;2022-12-18T00:53:10;21.3;;;11.4;;
49582;SDS011;36329;48.816;44.624;2022-12-18T00:56:12;18.2;;;11.3;;
49582;SDS011;36329;48.816;44.624;2022-12-18T00:59:13;17.4;;;10.8;;
49582;SDS011;36329;48.816;44.624;2022-12-18T01:02:15;17.2;;;11.2;;
49582;SDS011;36329;48.816;44.624;2022-12-18T01:05:17;17.8;;;11;;
49582;SDS011;36329;48.816;44.624;2022-12-18T01:08:18;18.5;;;11;;
49582;SDS011;36329;48.816;44.624;2022-12-18T01:11:20;17.4;;;10.7;;
49582;SDS011;36329;48.816;44.624;2022-12-18T01:14:23;16.8;;;10.9;;
49582;SDS011;36329;48.816;44.624;2022-12-18T01:17:25;18.3;;;11.2;;
49582;SDS011;36329;48.816;44.624;2022-12-18T01:20:26;18.8;;;11.1;;
49582;SDS011;36329;48.816;44.624;2022-12-18T01:23:28;20.2;;;11.6;;
49582;SDS011;36329;48.816;44.624;2022-12-18T01:26:29;19.5;;;11.5;;
49582;SDS011;36329;48.816;44.624;2022-12-18T01:29:31;16.7;;;10.7;;
49582;SDS011;36329;48.816;44.624;2022-12-18T01:32:33;16.1;;;9.9;;
49582;SDS011;36329;48.816;44.624;2022-12-18T01:35:39;17.3;;;9.5;;
49582;SDS011;36329;48.816;44.624;2022-12-18T01:38:42;13.2;;;9;;
49582;SDS011;36329;48.816;44.624;2022-12-18T01:41:44;13.5;;;8.5;;
49582;SDS011;36329;48.816;44.624;2022-12-18T01:44:51;12.9;;;7.8;;
49582;SDS011;36329;48.816;44.624;2022-12-18T01:47:56;11.4;;;8;;
49582;SDS011;36329;48.816;44.624;2022-12-18T01:51:00;13.7;;;8.3;;
49582;SDS011;36329;48.816;44.624;2022-12-18T01:54:02;12.4;;;7.9;;
49582;SDS011;36329;48.816;44.624;2022-12-18T01:57:04;15.5;;;8.3;;
49582;SDS011;36329;48.816;44.624;2022-12-18T02:00:08;12.4;;;7.6;;
49582;SDS011;36329;48.816;44.624;2022-12-18T02:03:14;13.5;;;7.9;;
49582;SDS011;36329;48.816;44.624;2022-12-18T02:06:16;11.4;;;7.8;;
49582;SDS011;36329;48.816;44.624;2022-12-18T02:09:25;12.7;;;7.2;;
49582;SDS011;36329;48.816;44.624;2022-12-18T02:12:34;11.2;;;7.6;;
49582;SDS011;36329;48.816;44.624;2022-12-18T02:15:46;10.1;;;6.8;;
49582;SDS011;36329;48.816;44.624;2022-12-18T02:18:57;12.1;;;7.3;;
49582;SDS011;36329;48.816;44.624;2022-12-18T02:22:03;11.8;;;7.5;;
49582;SDS011;36329;48.816;44.624;2022-12-18T02:25:19;11.2;;;7.1;;
49582;SDS011;36329;48.816;44.624;2022-12-18T02:28:30;9.4;;;6.4;;
49582;SDS011;36329;48.816;44.624;2022-12-18T02:31:36;11.2;;;6.6;;
49582;SDS011;36329;48.816;44.624;2022-12-18T02:34:42;11.9;;;6.6;;
49582;SDS011;36329;48.816;44.624;2022-12-18T02:37:45;10.5;;;6.8;;
49582;SDS011;36329;48.816;44.624;2022-12-18T02:40:48;12.3;;;7;;
49582;SDS011;36329;48.816;44.624;2022-12-18T02:43:54;10;;;6.6;;
49582;SDS011;36329;48.816;44.624;2022-12-18T02:46:58;10.5;;;6.5;;
49582;SDS011;36329;48.816;44.624;2022-12-18T02:50:03;9.4;;;6.7;;
49582;SDS011;36329;48.816;44.624;2022-12-18T02:53:13;9.7;;;6.7;;
49582;SDS011;36329;48.816;44.624;2022-12-18T02:56:23;12.5;;;6.4;;
49582;SDS011;36329;48.816;44.624;2022-12-18T02:59:33;8.8;;;6.5;;
49582;SDS011;36329;48.816;44.624;2022-12-18T03:02:41;9.5;;;6.7;;
49582;SDS011;36329;48.816;44.624;2022-12-18T03:05:47;10.5;;;7.1;;
49582;SDS011;36329;48.816;44.624;2022-12-18T03:08:52;10.5;;;6.5;;
49582;SDS011;36329;48.816;44.624;2022-12-18T03:11:59;10.1;;;6.5;;
49582;SDS011;36329;48.816;44.624;2022-12-18T03:15:08;10.5;;;6.9;;
49582;SDS011;36329;48.816;44.624;2022-12-18T03:18:16;11;;;6.5;;
49582;SDS011;36329;48.816;44.624;2022-12-18T03:21:21;10.8;;;6.6;;
49582;SDS011;36329;48.816;44.624;2022-12-18T03:24:28;8.9;;;6.4;;
49582;SDS011;36329;48.816;44.624;2022-12-18T03:27:35;8.8;;;6.4;;
49582;SDS011;36329;48.816;44.624;2022-12-18T03:30:40;10.1;;;6.6;;
49582;SDS011;36329;48.816;44.624;2022-12-18T03:33:45;10.6;;;7.2;;
49582;SDS011;36329;48.816;44.624;2022-12-18T03:36:52;9.7;;;6.5;;
49582;SDS011;36329;48.816;44.624;2022-12-18T03:39:54;8.8;;;6.5;;
49582;SDS011;36329;48.816;44.624;2022-12-18T03:42:56;8.8;;;6.4;;
49582;SDS011;36329;48.816;44.624;2022-12-18T03:46:06;8.8;;;6.1;;
49582;SDS011;36329;48.816;44.624;2022-12-18T03:49:14;8.9;;;6.8;;
49582;SDS011;36329;48.816;44.624;2022-12-18T03:52:24;9;;;6.4;;
49582;SDS011;36329;48.816;44.624;2022-12-18T03:55:30;8.4;;;6;;
49582;SDS011;36329;48.816;44.624;2022-12-18T03:58:36;10.1;;;6.5;;
49582;SDS011;36329;48.816;44.624;2022-12-18T04:01:40;9;;;6.7;;
49582;SDS011;36329;48.816;44.624;2022-12-18T04:04:45;9.7;;;6.2;;
49582;SDS011;36329;48.816;44.624;2022-12-18T04:07:49;10.1;;;6.4;;
49582;SDS011;36329;48.816;44.624;2022-12-18T04:10:52;11.3;;;6.4;;
49582;SDS011;36329;48.816;44.624;2022-12-18T04:13:55;10;;;6.6;;
49582;SDS011;36329;48.816;44.624;2022-12-18T04:16:57;9.8;;;6.4;;
49582;SDS011;36329;48.816;44.624;2022-12-18T04:19:58;9.3;;;6;;
49582;SDS011;36329;48.816;44.624;2022-12-18T04:23:00;11.3;;;6.2;;
49582;SDS011;36329;48.816;44.624;2022-12-18T04:26:01;9.2;;;6.6;;
49582;SDS011;36329;48.816;44.624;2022-12-18T04:29:03;8.4;;;6;;
49582;SDS011;36329;48.816;44.624;2022-12-18T04:32:05;11.1;;;6.5;;
49582;SDS011;36329;48.816;44.624;2022-12-18T04:35:07;11.5;;;6.6;;
49582;SDS011;36329;48.816;44.624;2022-12-18T04:38:09;11.3;;;6.8;;
49582;SDS011;36329;48.816;44.624;2022-12-18T04:41:11;10.3;;;6.5;;
49582;SDS011;36329;48.816;44.624;2022-12-18T04:44:12;10.7;;;6.3;;
49582;SDS011;36329;48.816;44.624;2022-12-18T04:47:14;11;;;6.7;;
49582;SDS011;36329;48.816;44.624;2022-12-18T04:50:15;9.7;;;6.4;;
49582;SDS011;36329;48.816;44.624;2022-12-18T04:53:17;11;;;7.1;;
49582;SDS011;36329;48.816;44.624;2022-12-18T04:56:18;10.4;;;6.8;;
49582;SDS011;36329;48.816;44.624;2022-12-18T04:59:21;14.6;;;6.9;;
49582;SDS011;36329;48.816;44.624;2022-12-18T05:02:22;10.2;;;6.6;;
49582;SDS011;36329;48.816;44.624;2022-12-18T05:05:24;12.5;;;6.8;;
49582;SDS011;36329;48.816;44.624;2022-12-18T05:08:25;11;;;6.9;;
49582;SDS011;36329;48.816;44.624;2022-12-18T05:11:27;12.8;;;7.3;;
49582;SDS011;36329;48.816;44.624;2022-12-18T05:14:29;9.5;;;6.7;;
49582;SDS011;36329;48.816;44.624;2022-12-18T05:17:30;12.5;;;7;;
49582;SDS011;36329;48.816;44.624;2022-12-18T05:20:32;13.8;;;7.6;;
49582;SDS011;36329;48.816;44.624;2022-12-18T05:23:33;16.6;;;6.9;;
49582;SDS011;36329;48.816;44.624;2022-12-18T05:26:35;10.9;;;7.1;;
49582;SDS011;36329;48.816;44.624;2022-12-18T05:29:36;10.6;;;7.1;;
49582;SDS011;36329;48.816;44.624;2022-12-18T05:32:38;14.7;;;7.5;;
49582;SDS011;36329;48.816;44.624;2022-12-18T05:35:39;11.1;;;7.1;;
49582;SDS011;36329;48.816;44.624;2022-12-18T05:38:41;10.8;;;7.1;;
49582;SDS011;36329;48.816;44.624;2022-12-18T05:41:42;11.8;;;7.4;;
49582;SDS011;36329;48.816;44.624;2022-12-18T05:44:44;12.1;;;7.1;;
49582;SDS011;36329;48.816;44.624;2022-12-18T05:47:45;9.8;;;6.8;;
49582;SDS011;36329;48.816;44.624;2022-12-18T05:50:47;11.9;;;7;;
49582;SDS011;36329;48.816;44.624;2022-12-18T05:53:50;11.5;;;7;;
49582;SDS011;36329;48.816;44.624;2022-12-18T05:56:51;12.3;;;6.8;;
49582;SDS011;36329;48.816;44.624;2022-12-18T05:59:54;12.7;;;7.4;;
49582;SDS011;36329;48.816;44.624;2022-12-18T06:02:55;12;;;6.7;;
49582;SDS011;36329;48.816;44.624;2022-12-18T06:05:57;11.5;;;7.5;;
49582;SDS011;36329;48.816;44.624;2022-12-18T06:08:58;10.6;;;7.1;;
49582;SDS011;36329;48.816;44.624;2022-12-18T06:12:00;10.7;;;7.1;;
49582;SDS011;36329;48.816;44.624;2022-12-18T06:15:04;10.1;;;6.6;;
49582;SDS011;36329;48.816;44.624;2022-12-18T06:18:07;10.9;;;6.8;;
49582;SDS011;36329;48.816;44.624;2022-12-18T06:21:08;10.9;;;6.3;;
49582;SDS011;36329;48.816;44.624;2022-12-18T06:24:10;12;;;6.5;;
49582;SDS011;36329;48.816;44.624;2022-12-18T06:27:12;10.7;;;6.3;;
49582;SDS011;36329;48.816;44.624;2022-12-18T06:30:14;10;;;6.4;;
49582;SDS011;36329;48.816;44.624;2022-12-18T06:33:16;8.2;;;5.8;;
49582;SDS011;36329;48.816;44.624;2022-12-18T06:36:18;9.1;;;5.9;;
49582;SDS011;36329;48.816;44.624;2022-12-18T06:39:19;9.5;;;6.3;;
49582;SDS011;36329;48.816;44.624;2022-12-18T06:42:21;9.9;;;6.3;;
49582;SDS011;36329;48.816;44.624;2022-12-18T06:45:22;8.9;;;6.2;;
49582;SDS011;36329;48.816;44.624;2022-12-18T06:48:24;10.1;;;6.7;;
49582;SDS011;36329;48.816;44.624;2022-12-18T06:51:26;9.6;;;6.1;;
49582;SDS011;36329;48.816;44.624;2022-12-18T06:54:27;9.8;;;6.5;;
49582;SDS011;36329;48.816;44.624;2022-12-18T06:57:28;9.4;;;6.3;;
49582;SDS011;36329;48.816;44.624;2022-12-18T07:00:30;9;;;6.1;;
49582;SDS011;36329;48.816;44.624;2022-12-18T07:03:32;8.9;;;6;;
49582;SDS011;36329;48.816;44.624;2022-12-18T07:06:34;9.9;;;5.9;;
49582;SDS011;36329;48.816;44.624;2022-12-18T07:09:36;9.7;;;6.4;;
49582;SDS011;36329;48.816;44.624;2022-12-18T07:12:37;8.6;;;6;;
49582;SDS011;36329;48.816;44.624;2022-12-18T07:15:39;9.5;;;6.3;;
49582;SDS011;36329;48.816;44.624;2022-12-18T07:18:40;9.9;;;5.9;;
49582;SDS011;36329;48.816;44.624;2022-12-18T07:21:42;8.4;;;5.8;;
49582;SDS011;36329;48.816;44.624;2022-12-18T07:24:43;9;;;6.2;;
49582;SDS011;36329;48.816;44.624;2022-12-18T07:27:45;9.3;;;6.5;;
49582;SDS011;36329;48.816;44.624;2022-12-18T07:30:57;9.2;;;6.3;;
49582;SDS011;36329;48.816;44.624;2022-12-18T07:33:59;9.7;;;6.1;;
49582;SDS011;36329;48.816;44.624;2022-12-18T07:37:01;11;;;6.2;;
49582;SDS011;36329;48.816;44.624;2022-12-18T07:40:03;10.6;;;6.1;;
49582;SDS011;36329;48.816;44.624;2022-12-18T07:43:05;9.4;;;6.1;;
49582;SDS011;36329;48.816;44.624;2022-12-18T07:46:07;11.9;;;6.6;;
49582;SDS011;36329;48.816;44.624;2022-12-18T07:49:09;9.3;;;6.2;;
49582;SDS011;36329;48.816;44.624;2022-12-18T07:52:11;9.3;;;6.7;;
49582;SDS011;36329;48.816;44.624;2022-12-18T07:55:12;11.3;;;6.7;;
49582;SDS011;36329;48.816;44.624;2022-12-18T07:58:14;11.3;;;6.8;;
49582;SDS011;36329;48.816;44.624;2022-12-18T08:01:16;11.1;;;6.8;;
49582;SDS011;36329;48.816;44.624;2022-12-18T08:04:17;10;;;6.2;;
49582;SDS011;36329;48.816;44.624;2022-12-18T08:07:19;10.2;;;7;;
49582;SDS011;36329;48.816;44.624;2022-12-18T08:10:20;13.9;;;7.4;;
49582;SDS011;36329;48.816;44.624;2022-12-18T08:13:23;12.8;;;6.9;;
49582;SDS011;36329;48.816;44.624;2022-12-18T08:16:25;13.4;;;7.7;;
49582;SDS011;36329;48.816;44.624;2022-12-18T08:19:27;12.5;;;7.2;;
49582;SDS011;36329;48.816;44.624;2022-12-18T08:22:29;12.4;;;7.9;;
49582;SDS011;36329;48.816;44.624;2022-12-18T08:25:30;14.4;;;7.7;;
49582;SDS011;36329;48.816;44.624;2022-12-18T08:28:32;12.8;;;7.9;;
49582;SDS011;36329;48.816;44.624;2022-12-18T08:31:35;14.4;;;8.3;;
49582;SDS011;36329;48.816;44.624;2022-12-18T08:34:37;13.8;;;8.2;;
49582;SDS011;36329;48.816;44.624;2022-12-18T08:37:38;13.1;;;8.4;;
49582;SDS011;36329;48.816;44.624;2022-12-18T08:40:40;14.4;;;8;;
49582;SDS011;36329;48.816;44.624;2022-12-18T08:43:41;12.7;;;7.9;;
49582;SDS011;36329;48.816;44.624;2022-12-18T08:46:43;11.6;;;7.8;;
49582;SDS011;36329;48.816;44.624;2022-12-18T08:49:45;14.6;;;7.6;;
49582;SDS011;36329;48.816;44.624;2022-12-18T08:52:46;12;;;7.2;;
49582;SDS011;36329;48.816;44.624;2022-12-18T08:55:48;12;;;7.5;;
49582;SDS011;36329;48.816;44.624;2022-12-18T08:58:51;12.2;;;7.3;;
49582;SDS011;36329;48.816;44.624;2022-12-18T09:01:53;11.9;;;7.8;;
49582;SDS011;36329;48.816;44.624;2022-12-18T09:04:55;11.6;;;7.4;;
49582;SDS011;36329;48.816;44.624;2022-12-18T09:07:56;12.5;;;7.1;;
49582;SDS011;36329;48.816;44.624;2022-12-18T09:10:58;13.1;;;7;;
49582;SDS011;36329;48.816;44.624;2022-12-18T09:14:00;10.4;;;7.1;;
49582;SDS011;36329;48.816;44.624;2022-12-18T09:17:02;13.7;;;6.9;;
49582;SDS011;36329;48.816;44.624;2022-12-18T09:20:05;11.4;;;7.1;;
49582;SDS011;36329;48.816;44.624;2022-12-18T09:23:07;12.3;;;7.3;;
49582;SDS011;36329;48.816;44.624;2022-12-18T09:26:09;11.1;;;7;;
49582;SDS011;36329;48.816;44.624;2022-12-18T09:29:11;11.4;;;6.6;;
49582;SDS011;36329;48.816;44.624;2022-12-18T09:32:14;9.9;;;6.2;;
49582;SDS011;36329;48.816;44.624;2022-12-18T09:35:15;9.3;;;6.1;;
49582;SDS011;36329;48.816;44.624;2022-12-18T09:38:18;11.7;;;7.1;;
49582;SDS011;36329;48.816;44.624;2022-12-18T09:41:27;9.8;;;6.7;;
49582;SDS011;36329;48.816;44.624;2022-12-18T09:44:39;11.1;;;6.7;;
49582;SDS011;36329;48.816;44.624;2022-12-18T09:47:45;10.9;;;6.6;;
49582;SDS011;36329;48.816;44.624;2022-12-18T09:50:50;9.9;;;6.4;;
49582;SDS011;36329;48.816;44.624;2022-12-18T09:53:57;10.6;;;6.8;;
49582;SDS011;36329;48.816;44.624;2022-12-18T09:57:03;9.8;;;6.6;;
49582;SDS011;36329;48.816;44.624;2022-12-18T10:00:15;12.7;;;7.2;;
49582;SDS011;36329;48.816;44.624;2022-12-18T10:03:19;11.6;;;6.9;;
49582;SDS011;36329;48.816;44.624;2022-12-18T10:06:22;11.3;;;6.8;;
49582;SDS011;36329;48.816;44.624;2022-12-18T10:09:31;12.6;;;7.4;;
49582;SDS011;36329;48.816;44.624;2022-12-18T10:12:40;11.2;;;7;;
49582;SDS011;36329;48.816;44.624;2022-12-18T10:15:53;10.6;;;6.3;;
49582;SDS011;36329;48.816;44.624;2022-12-18T10:19:04;9.7;;;6.5;;
49582;SDS011;36329;48.816;44.624;2022-12-18T10:22:18;10;;;6.6;;
49582;SDS011;36329;48.816;44.624;2022-12-18T10:25:24;9.6;;;5.8;;
49582;SDS011;36329;48.816;44.624;2022-12-18T10:28:31;9.4;;;5.9;;
49582;SDS011;36329;48.816;44.624;2022-12-18T10:31:34;10.1;;;6.5;;
49582;SDS011;36329;48.816;44.624;2022-12-18T10:34:36;10;;;6.2;;
49582;SDS011;36329;48.816;44.624;2022-12-18T10:37:37;10.5;;;5.9;;
49582;SDS011;36329;48.816;44.624;2022-12-18T10:41:03;9.5;;;6.3;;
49582;SDS011;36329;48.816;44.624;2022-12-18T10:44:14;10.3;;;6.1;;
49582;SDS011;36329;48.816;44.624;2022-12-18T10:47:18;9.4;;;6.2;;
49582;SDS011;36329;48.816;44.624;2022-12-18T10:50:22;10.7;;;6.4;;
49582;SDS011;36329;48.816;44.624;2022-12-18T10:53:28;8.7;;;5.5;;
49582;SDS011;36329;48.816;44.624;2022-12-18T10:56:33;9.4;;;6.1;;
49582;SDS011;36329;48.816;44.624;2022-12-18T10:59:37;9.3;;;6.5;;
49582;SDS011;36329;48.816;44.624;2022-12-18T11:02:52;11.7;;;7;;
49582;SDS011;36329;48.816;44.624;2022-12-18T11:06:00;9.6;;;6.4;;
49582;SDS011;36329;48.816;44.624;2022-12-18T11:09:04;10.7;;;6.8;;
49582;SDS011;36329;48.816;44.624;2022-12-18T11:12:21;11.3;;;7.2;;
49582;SDS011;36329;48.816;44.624;2022-12-18T11:15:26;10.1;;;6.3;;
49582;SDS011;36329;48.816;44.624;2022-12-18T11:18:32;11.2;;;6.8;;
49582;SDS011;36329;48.816;44.624;2022-12-18T11:21:39;10;;;6.4;;
49582;SDS011;36329;48.816;44.624;2022-12-18T11:24:41;9.8;;;6.6;;
49582;SDS011;36329;48.816;44.624;2022-12-18T11:27:46;9.4;;;6.1;;
49582;SDS011;36329;48.816;44.624;2022-12-18T11:30:50;9.9;;;6.1;;
49582;SDS011;36329;48.816;44.624;2022-12-18T11:34:15;9;;;5.7;;
49582;SDS011;36329;48.816;44.624;2022-12-18T11:37:24;8.9;;;5.7;;
49582;SDS011;36329;48.816;44.624;2022-12-18T11:40:27;9.5;;;6;;
49582;SDS011;36329;48.816;44.624;2022-12-18T11:43:35;8.8;;;5.9;;
49582;SDS011;36329;48.816;44.624;2022-12-18T11:46:45;10.6;;;5.9;;
49582;SDS011;36329;48.816;44.624;2022-12-18T11:49:51;8.8;;;5.7;;
49582;SDS011;36329;48.816;44.624;2022-12-18T11:52:54;9;;;5.7;;
49582;SDS011;36329;48.816;44.624;2022-12-18T11:56:00;10.3;;;5.6;;
49582;SDS011;36329;48.816;44.624;2022-12-18T11:59:08;9.1;;;6.1;;
49582;SDS011;36329;48.816;44.624;2022-12-18T12:02:20;10.3;;;6.3;;
49582;SDS011;36329;48.816;44.624;2022-12-18T12:05:35;10.1;;;6.9;;
49582;SDS011;36329;48.816;44.624;2022-12-18T12:08:46;10.6;;;6.5;;
49582;SDS011;36329;48.816;44.624;2022-12-18T12:12:03;9.5;;;6.6;;
49582;SDS011;36329;48.816;44.624;2022-12-18T12:15:19;11.1;;;6.7;;
49582;SDS011;36329;48.816;44.624;2022-12-18T12:18:31;9.9;;;6.4;;
49582;SDS011;36329;48.816;44.624;2022-12-18T12:21:46;10.7;;;7.3;;
49582;SDS011;36329;48.816;44.624;2022-12-18T12:24:56;11;;;7.3;;
49582;SDS011;36329;48.816;44.624;2022-12-18T12:28:09;11.1;;;7.2;;
49582;SDS011;36329;48.816;44.624;2022-12-18T12:31:21;10.8;;;7.5;;
49582;SDS011;36329;48.816;44.624;2022-12-18T12:34:34;12;;;7.9;;
49582;SDS011;36329;48.816;44.624;2022-12-18T12:37:47;13.1;;;7.8;;
49582;SDS011;36329;48.816;44.624;2022-12-18T12:40:57;12.3;;;7.8;;
49582;SDS011;36329;48.816;44.624;2022-12-18T12:44:04;11.7;;;8;;
49582;SDS011;36329;48.816;44.624;2022-12-18T12:47:12;13;;;8;;
49582;SDS011;36329;48.816;44.624;2022-12-18T12:50:19;12.2;;;7.7;;
49582;SDS011;36329;48.816;44.624;2022-12-18T12:53:26;12.2;;;8.1;;
49582;SDS011;36329;48.816;44.624;2022-12-18T12:56:36;11.5;;;7.6;;
49582;SDS011;36329;48.816;44.624;2022-12-18T12:59:44;13.7;;;7.4;;
49582;SDS011;36329;48.816;44.624;2022-12-18T13:02:51;11.5;;;7.5;;
49582;SDS011;36329;48.816;44.624;2022-12-18T13:06:02;11.8;;;7.5;;
49582;SDS011;36329;48.816;44.624;2022-12-18T13:09:10;12.8;;;7.1;;
49582;SDS011;36329;48.816;44.624;2022-12-18T13:12:12;11;;;7.2;;
49582;SDS011;36329;48.816;44.624;2022-12-18T13:15:19;12;;;7.2;;
49582;SDS011;36329;48.816;44.624;2022-12-18T13:18:24;11.6;;;7.2;;
49582;SDS011;36329;48.816;44.624;2022-12-18T13:21:27;10.5;;;7;;
49582;SDS011;36329;48.816;44.624;2022-12-18T13:24:30;10.6;;;7.2;;
49582;SDS011;36329;48.816;44.624;2022-12-18T13:31:01;9.5;;;6.6;;
49582;SDS011;36329;48.816;44.624;2022-12-18T13:34:12;10.7;;;6.5;;
49582;SDS011;36329;48.816;44.624;2022-12-18T13:44:09;8.7;;;6;;
49582;SDS011;36329;48.816;44.624;2022-12-18T13:50:27;11;;;6.3;;
49582;SDS011;36329;48.816;44.624;2022-12-18T13:53:33;10.7;;;6.6;;
49582;SDS011;36329;48.816;44.624;2022-12-18T13:56:42;10.8;;;6.6;;
49582;SDS011;36329;48.816;44.624;2022-12-18T13:59:45;11;;;6.6;;
49582;SDS011;36329;48.816;44.624;2022-12-18T14:02:47;9.5;;;6.6;;
49582;SDS011;36329;48.816;44.624;2022-12-18T14:05:55;10.8;;;6.4;;
49582;SDS011;36329;48.816;44.624;2022-12-18T14:08:59;8.1;;;6.1;;
49582;SDS011;36329;48.816;44.624;2022-12-18T14:12:01;10.4;;;6.2;;
49582;SDS011;36329;48.816;44.624;2022-12-18T14:15:03;9.8;;;6.5;;
49582;SDS011;36329;48.816;44.624;2022-12-18T14:18:13;10.6;;;6.5;;
49582;SDS011;36329;48.816;44.624;2022-12-18T14:21:22;10.9;;;6.2;;
49582;SDS011;36329;48.816;44.624;2022-12-18T14:24:26;9.9;;;6.8;;
49582;SDS011;36329;48.816;44.624;2022-12-18T14:27:27;9.4;;;6.2;;
49582;SDS011;36329;48.816;44.624;2022-12-18T14:30:30;10.1;;;6.3;;
49582;SDS011;36329;48.816;44.624;2022-12-18T14:33:33;9.4;;;6.2;;
49582;SDS011;36329;48.816;44.624;2022-12-18T14:36:34;10.4;;;6.3;;
49582;SDS011;36329;48.816;44.624;2022-12-18T14:39:36;9.9;;;6.5;;
49582;SDS011;36329;48.816;44.624;2022-12-18T14:42:37;10.6;;;6.6;;
49582;SDS011;36329;48.816;44.624;2022-12-18T14:45:39;9.4;;;6.3;;
49582;SDS011;36329;48.816;44.624;2022-12-18T14:48:43;10.2;;;6.3;;
49582;SDS011;36329;48.816;44.624;2022-12-18T14:51:49;8.8;;;6.2;;
49582;SDS011;36329;48.816;44.624;2022-12-18T14:54:53;10.6;;;6.7;;
49582;SDS011;36329;48.816;44.624;2022-12-18T14:57:56;9.3;;;6.5;;
49582;SDS011;36329;48.816;44.624;2022-12-18T15:00:58;9.3;;;6.1;;
49582;SDS011;36329;48.816;44.624;2022-12-18T15:04:00;9.4;;;6.1;;
49582;SDS011;36329;48.816;44.624;2022-12-18T15:07:05;8.9;;;6;;
49582;SDS011;36329;48.816;44.624;2022-12-18T15:10:13;10.5;;;6.7;;
49582;SDS011;36329;48.816;44.624;2022-12-18T15:13:20;9.4;;;6.4;;
49582;SDS011;36329;48.816;44.624;2022-12-18T15:16:24;8.7;;;5.6;;
49582;SDS011;36329;48.816;44.624;2022-12-18T15:19:31;8.9;;;6;;
49582;SDS011;36329;48.816;44.624;2022-12-18T15:22:36;10.3;;;6.2;;
49582;SDS011;36329;48.816;44.624;2022-12-18T15:25:38;7.6;;;5.7;;
49582;SDS011;36329;48.816;44.624;2022-12-18T15:28:43;8.5;;;6.2;;
49582;SDS011;36329;48.816;44.624;2022-12-18T15:35:02;9;;;6.5;;
49582;SDS011;36329;48.816;44.624;2022-12-18T15:38:04;9.9;;;6.7;;
49582;SDS011;36329;48.816;44.624;2022-12-18T15:41:10;8.8;;;5.9;;
49582;SDS011;36329;48.816;44.624;2022-12-18T15:44:20;8.8;;;5.4;;
49582;SDS011;36329;48.816;44.624;2022-12-18T15:47:24;7.8;;;5.4;;
49582;SDS011;36329;48.816;44.624;2022-12-18T15:50:26;8;;;4.9;;
49582;SDS011;36329;48.816;44.624;2022-12-18T15:53:30;8.1;;;5.6;;
49582;SDS011;36329;48.816;44.624;2022-12-18T15:56:33;7.9;;;5.4;;
49582;SDS011;36329;48.816;44.624;2022-12-18T15:59:35;6.9;;;5.3;;
49582;SDS011;36329;48.816;44.624;2022-12-18T16:02:36;7.2;;;5.1;;
49582;SDS011;36329;48.816;44.624;2022-12-18T16:05:38;8.6;;;5.3;;
49582;SDS011;36329;48.816;44.624;2022-12-18T16:08:39;9;;;6;;
49582;SDS011;36329;48.816;44.624;2022-12-18T16:11:41;8.2;;;5.6;;
49582;SDS011;36329;48.816;44.624;2022-12-18T16:14:44;8.3;;;5.8;;
49582;SDS011;36329;48.816;44.624;2022-12-18T16:17:47;9.4;;;6.1;;
49582;SDS011;36329;48.816;44.624;2022-12-18T16:20:48;9.3;;;6.1;;
49582;SDS011;36329;48.816;44.624;2022-12-18T16:23:50;9.8;;;6.3;;
49582;SDS011;36329;48.816;44.624;2022-12-18T16:26:52;8.6;;;6;;
49582;SDS011;36329;48.816;44.624;2022-12-18T16:29:55;10.2;;;7;;
49582;SDS011;36329;48.816;44.624;2022-12-18T16:32:57;10.3;;;6.8;;
49582;SDS011;36329;48.816;44.624;2022-12-18T16:35:59;10.1;;;6.7;;
49582;SDS011;36329;48.816;44.624;2022-12-18T16:39:01;9.8;;;7;;
49582;SDS011;36329;48.816;44.624;2022-12-18T16:42:04;11.5;;;6.9;;
49582;SDS011;36329;48.816;44.624;2022-12-18T16:45:08;9.8;;;6.9;;
49582;SDS011;36329;48.816;44.624;2022-12-18T16:48:12;10.4;;;7.1;;
49582;SDS011;36329;48.816;44.624;2022-12-18T16:51:14;9.7;;;6.7;;
49582;SDS011;36329;48.816;44.624;2022-12-18T16:54:17;10.8;;;6.9;;
49582;SDS011;36329;48.816;44.624;2022-12-18T16:57:21;11.3;;;6.9;;
49582;SDS011;36329;48.816;44.624;2022-12-18T17:00:24;10.7;;;7.7;;
49582;SDS011;36329;48.816;44.624;2022-12-18T17:03:26;10.8;;;7.5;;
49582;SDS011;36329;48.816;44.624;2022-12-18T17:06:29;10.8;;;7.7;;
49582;SDS011;36329;48.816;44.624;2022-12-18T17:09:33;11;;;7.6;;
49582;SDS011;36329;48.816;44.624;2022-12-18T17:12:34;10.6;;;7.3;;
49582;SDS011;36329;48.816;44.624;2022-12-18T17:15:36;9.5;;;6.7;;
49582;SDS011;36329;48.816;44.624;2022-12-18T17:18:37;9.7;;;6.8;;
49582;SDS011;36329;48.816;44.624;2022-12-18T17:21:39;9.5;;;6.5;;
49582;SDS011;36329;48.816;44.624;2022-12-18T17:24:41;10.2;;;6.6;;
49582;SDS011;36329;48.816;44.624;2022-12-18T17:27:42;9.9;;;6.3;;
49582;SDS011;36329;48.816;44.624;2022-12-18T17:30:44;10.8;;;6.3;;
49582;SDS011;36329;48.816;44.624;2022-12-18T17:33:46;9.7;;;6.5;;
49582;SDS011;36329;48.816;44.624;2022-12-18T17:36:47;10;;;6.4;;
49582;SDS011;36329;48.816;44.624;2022-12-18T17:39:49;12.8;;;6.9;;
49582;SDS011;36329;48.816;44.624;2022-12-18T17:42:51;10.8;;;6.7;;
49582;SDS011;36329;48.816;44.624;2022-12-18T17:45:53;11.2;;;6.9;;
49582;SDS011;36329;48.816;44.624;2022-12-18T17:48:55;11.4;;;6.8;;
49582;SDS011;36329;48.816;44.624;2022-12-18T17:51:58;10.2;;;6.6;;
49582;SDS011;36329;48.816;44.624;2022-12-18T17:55:00;11.3;;;7.4;;
49582;SDS011;36329;48.816;44.624;2022-12-18T17:58:01;11.2;;;6.8;;
49582;SDS011;36329;48.816;44.624;2022-12-18T18:01:04;10.5;;;6.9;;
49582;SDS011;36329;48.816;44.624;2022-12-18T18:04:06;10.8;;;6.6;;
49582;SDS011;36329;48.816;44.624;2022-12-18T18:07:08;10.1;;;6.3;;
49582;SDS011;36329;48.816;44.624;2022-12-18T18:10:10;10.3;;;6.8;;
49582;SDS011;36329;48.816;44.624;2022-12-18T18:13:15;11.5;;;7.1;;
49582;SDS011;36329;48.816;44.624;2022-12-18T18:16:19;15.7;;;7.9;;
49582;SDS011;36329;48.816;44.624;2022-12-18T18:19:22;13.3;;;7.7;;
49582;SDS011;36329;48.816;44.624;2022-12-18T18:22:24;16.1;;;8;;
49582;SDS011;36329;48.816;44.624;2022-12-18T18:25:26;21.4;;;8.7;;
49582;SDS011;36329;48.816;44.624;2022-12-18T18:28:28;25.7;;;9.2;;
49582;SDS011;36329;48.816;44.624;2022-12-18T18:31:30;18;;;8.3;;
49582;SDS011;36329;48.816;44.624;2022-12-18T18:34:32;19.5;;;8.1;;
49582;SDS011;36329;48.816;44.624;2022-12-18T18:37:34;20.1;;;8.4;;
49582;SDS011;36329;48.816;44.624;2022-12-18T18:40:36;22.8;;;8.7;;
49582;SDS011;36329;48.816;44.624;2022-12-18T18:43:37;23.8;;;9.1;;
49582;SDS011;36329;48.816;44.624;2022-12-18T18:46:39;22.8;;;9.2;;
49582;SDS011;36329;48.816;44.624;2022-12-18T18:49:40;24.7;;;8.4;;
49582;SDS011;36329;48.816;44.624;2022-12-18T18:52:42;18.3;;;7.7;;
49582;SDS011;36329;48.816;44.624;2022-12-18T18:55:43;23.1;;;7.7;;